Argos, Indiana
Current Conditions -  °F | °C
As of 9:15 AM on Thursday 29 Jan 2015 (Local Time) from KRCR Reporting Station
Broken Clouds Broken Clouds  
Wind Chill:   Ceiling: 2700
Heat Index:   Visibility: 10mi
Dew Point:   Wind: 8mph
Humidity: 75%   Direction: 220°SW
Pressure: 29.73"   Gusts: NA
Location:  41.23°N, 86.24°W
Report Text: KRCR 291415Z AUTO 22007KT 10SM BKN027 BKN040 04/00 A2973 RMK AO2
Loading
Personal Weather Stations






























Interactive Weather Map New forecast layout! Learn more

10-Day Weather Forecast

Advertisements
Track Severe Weather on mobile